createdAt,value
2018-10-03T00:00:33.628Z,23.77
2018-10-03T00:03:03.305Z,24.20
2018-10-03T00:05:31.835Z,19.90
2018-10-03T00:08:00.378Z,18.13
2018-10-03T00:10:28.928Z,26.07
2018-10-03T00:12:57.464Z,24.77
2018-10-03T00:15:26.059Z,21.20
2018-10-03T00:17:54.614Z,20.77
2018-10-03T00:20:23.109Z,20.80
2018-10-03T00:22:51.721Z,24.97
2018-10-03T00:25:20.274Z,24.07
2018-10-03T00:27:48.763Z,15.70
2018-10-03T00:30:17.269Z,20.67
2018-10-03T00:32:46.149Z,25.83
2018-10-03T00:35:14.671Z,16.60
2018-10-03T00:37:43.438Z,19.17
2018-10-03T00:40:13.125Z,20.23
2018-10-03T00:42:41.668Z,23.80
2018-10-03T00:45:10.200Z,24.77
2018-10-03T00:47:38.767Z,23.63
2018-10-03T00:50:07.294Z,23.67
2018-10-03T00:52:35.847Z,24.80
2018-10-03T00:55:05.236Z,24.03
2018-10-03T00:57:34.720Z,20.03
2018-10-03T01:00:04.723Z,23.40
2018-10-03T01:02:33.370Z,23.23
2018-10-03T01:05:02.755Z,20.30
2018-10-03T01:07:31.265Z,18.47
2018-10-03T01:09:59.785Z,24.57
2018-10-03T01:12:28.265Z,28.23
2018-10-03T01:14:57.188Z,22.70
2018-10-03T01:17:25.733Z,22.50
2018-10-03T01:19:54.269Z,19.13
2018-10-03T01:22:22.796Z,18.97
2018-10-03T01:24:51.365Z,24.87
2018-10-03T01:27:19.841Z,20.33
2018-10-03T01:29:48.367Z,19.17
2018-10-03T01:32:17.253Z,17.83
2018-10-03T01:34:45.709Z,24.27
2018-10-03T01:37:14.205Z,19.50
2018-10-03T01:39:42.736Z,21.57
2018-10-03T01:42:11.238Z,23.60
2018-10-03T01:44:39.958Z,22.37
2018-10-03T01:47:08.484Z,22.77
2018-10-03T01:49:36.971Z,23.03
2018-10-03T01:52:05.482Z,24.10
2018-10-03T01:54:34.036Z,21.63
2018-10-03T01:57:04.176Z,27.63
2018-10-03T01:59:32.758Z,20.60
2018-10-03T02:02:02.828Z,22.67
2018-10-03T02:04:31.424Z,25.77
2018-10-03T02:06:59.969Z,19.87
2018-10-03T02:09:28.573Z,29.97
2018-10-03T02:11:57.088Z,19.93
2018-10-03T02:14:25.593Z,25.90
2018-10-03T02:16:54.330Z,25.77
2018-10-03T02:19:22.829Z,24.30
2018-10-03T02:21:51.424Z,21.07
2018-10-03T02:24:20.482Z,22.10
2018-10-03T02:26:49.048Z,26.37
2018-10-03T02:29:17.668Z,25.67
2018-10-03T02:31:46.188Z,27.77
2018-10-03T02:34:14.717Z,21.77
2018-10-03T02:36:43.557Z,22.30
2018-10-03T02:39:12.075Z,25.67
2018-10-03T02:41:40.625Z,22.37
2018-10-03T02:44:09.169Z,18.83
2018-10-03T02:46:37.769Z,23.73
2018-10-03T02:49:06.399Z,25.83
2018-10-03T02:51:35.143Z,20.33
2018-10-03T02:54:05.285Z,29.10
2018-10-03T02:56:33.821Z,22.53
2018-10-03T02:59:07.236Z,19.77
2018-10-03T03:01:35.760Z,23.23
2018-10-03T03:04:05.180Z,23.27
2018-10-03T03:06:33.657Z,21.27
2018-10-03T03:09:07.005Z,17.97
2018-10-03T03:11:35.522Z,17.57
2018-10-03T03:14:04.254Z,20.50
2018-10-03T03:16:32.797Z,24.00
2018-10-03T03:19:02.907Z,18.57
2018-10-03T03:21:31.446Z,23.53
2018-10-03T03:23:59.945Z,20.90
2018-10-03T03:26:28.471Z,20.20
2018-10-03T03:28:57.215Z,19.70
2018-10-03T03:31:26.023Z,22.63
2018-10-03T03:33:54.507Z,18.97
2018-10-03T03:36:22.986Z,21.57
2018-10-03T03:38:51.492Z,22.83
2018-10-03T03:41:20.037Z,23.43
2018-10-03T03:43:48.580Z,23.77
2018-10-03T03:46:17.208Z,24.77
2018-10-03T03:48:45.736Z,20.67
2018-10-03T03:51:14.547Z,24.27
2018-10-03T03:53:43.073Z,20.67
2018-10-03T03:56:11.605Z,23.87
2018-10-03T03:58:40.431Z,22.23
2018-10-03T04:01:08.928Z,24.47
2018-10-03T04:03:37.430Z,17.93
2018-10-03T04:06:05.940Z,25.37
2018-10-03T04:08:34.472Z,25.37
2018-10-03T04:11:05.237Z,22.87
2018-10-03T04:13:33.717Z,18.03
2018-10-03T04:16:04.092Z,21.77
2018-10-03T04:18:32.588Z,24.30
2018-10-03T04:21:03.598Z,23.50
2018-10-03T04:23:32.087Z,26.07
2018-10-03T04:26:00.611Z,19.63
2018-10-03T04:28:29.224Z,21.63
2018-10-03T04:30:57.729Z,18.33
2018-10-03T04:33:26.249Z,21.80
2018-10-03T04:35:54.771Z,24.63
2018-10-03T04:38:23.244Z,23.33
2018-10-03T04:40:51.762Z,23.83
2018-10-03T04:43:20.564Z,23.77
2018-10-03T04:45:49.078Z,20.80
2018-10-03T04:48:17.668Z,21.07
2018-10-03T04:50:46.214Z,19.97
2018-10-03T04:53:15.926Z,21.73
2018-10-03T04:55:44.447Z,19.47
2018-10-03T04:58:12.953Z,21.47
2018-10-03T05:00:41.938Z,29.47
2018-10-03T05:03:10.746Z,23.97
2018-10-03T05:05:39.232Z,21.93
2018-10-03T05:08:07.980Z,24.10
2018-10-03T05:10:36.522Z,21.93
2018-10-03T05:13:05.583Z,18.77
2018-10-03T05:15:34.485Z,22.83
2018-10-03T05:18:04.958Z,14.60
2018-10-03T05:20:34.721Z,18.83
2018-10-03T05:23:05.783Z,21.13
2018-10-03T05:25:34.317Z,23.33
2018-10-03T05:28:05.230Z,18.13
2018-10-03T05:30:33.820Z,21.27
2018-10-03T05:33:04.195Z,20.60
2018-10-03T05:35:32.740Z,24.93
2018-10-03T05:38:02.821Z,20.90
2018-10-03T05:40:31.478Z,18.50
2018-10-03T05:43:00.006Z,22.37
2018-10-03T05:45:28.596Z,15.87
2018-10-03T05:47:57.112Z,21.40
2018-10-03T05:50:25.649Z,20.33
2018-10-03T05:52:54.176Z,22.27
2018-10-03T05:55:22.671Z,17.70
2018-10-03T05:57:51.271Z,20.53
2018-10-03T06:00:19.858Z,20.63
2018-10-03T06:02:48.570Z,14.53
2018-10-03T06:05:17.105Z,19.50
2018-10-03T06:07:45.605Z,21.87
2018-10-03T06:10:14.088Z,20.23
2018-10-03T06:12:42.581Z,18.93
2018-10-03T06:15:11.139Z,17.13
2018-10-03T06:17:39.682Z,20.20
2018-10-03T06:20:09.191Z,16.57
2018-10-03T06:22:38.389Z,21.43
2018-10-03T06:25:06.981Z,17.73
2018-10-03T06:27:35.474Z,18.60
2018-10-03T06:30:05.710Z,18.03
2018-10-03T06:32:34.342Z,14.83
2018-10-03T06:35:04.648Z,20.27
2018-10-03T06:37:33.245Z,16.77
2018-10-03T06:40:02.929Z,23.77
2018-10-03T06:42:31.536Z,18.47
2018-10-03T06:45:00.085Z,19.83
2018-10-03T06:47:28.583Z,21.10
2018-10-03T06:49:57.123Z,21.20
2018-10-03T06:52:25.803Z,14.53
2018-10-03T06:54:54.563Z,16.63
2018-10-03T06:57:23.090Z,18.50
2018-10-03T06:59:51.642Z,17.50
2018-10-03T07:02:20.116Z,17.10
2018-10-03T07:04:48.737Z,17.20
2018-10-03T07:07:17.252Z,21.50
2018-10-03T07:09:45.777Z,22.97
2018-10-03T07:12:14.417Z,24.70
2018-10-03T07:14:42.971Z,22.37
2018-10-03T07:17:11.453Z,19.27
2018-10-03T07:19:40.012Z,16.73
2018-10-03T07:22:08.929Z,22.47
2018-10-03T07:24:37.760Z,24.13
2018-10-03T07:27:06.399Z,17.73
2018-10-03T07:29:35.031Z,19.07
2018-10-03T07:32:05.904Z,18.70
2018-10-03T07:34:34.444Z,22.23
2018-10-03T07:37:04.536Z,15.73
2018-10-03T07:39:33.231Z,15.27
2018-10-03T07:42:03.826Z,22.60
2018-10-03T07:44:32.424Z,14.67
2018-10-03T07:47:03.433Z,11.10
2018-10-03T07:49:32.187Z,19.40
2018-10-03T07:52:00.714Z,14.63
2018-10-03T07:54:29.336Z,18.50
2018-10-03T07:56:58.264Z,18.17
2018-10-03T07:59:27.300Z,16.23
2018-10-03T08:01:56.220Z,17.80
2018-10-03T08:04:24.749Z,21.97
2018-10-03T08:06:53.284Z,17.27
2018-10-03T08:09:24.933Z,18.50
2018-10-03T08:11:53.445Z,14.80
2018-10-03T08:14:21.962Z,19.07
2018-10-03T08:16:50.431Z,16.97
2018-10-03T08:19:19.079Z,15.20
2018-10-03T08:21:47.810Z,18.80
2018-10-03T08:24:16.322Z,19.93
2018-10-03T08:26:44.858Z,18.43
2018-10-03T08:29:13.482Z,16.57
2018-10-03T08:31:42.038Z,18.17
2018-10-03T08:34:10.858Z,25.97
2018-10-03T08:36:39.444Z,14.63
2018-10-03T08:39:10.913Z,16.17
2018-10-03T08:41:39.433Z,14.50
2018-10-03T08:44:08.226Z,17.57
2018-10-03T08:46:36.761Z,15.20
2018-10-03T08:49:06.065Z,15.67
2018-10-03T08:51:34.712Z,16.60
2018-10-03T08:54:04.881Z,13.10
2018-10-03T08:56:33.401Z,15.07
2018-10-03T08:59:02.895Z,13.83
2018-10-03T09:01:31.428Z,10.53
2018-10-03T09:03:59.930Z,14.60
2018-10-03T09:06:28.565Z,15.00
2018-10-03T09:08:57.137Z,13.70
2018-10-03T09:11:26.936Z,14.43
2018-10-03T09:13:55.422Z,15.73
2018-10-03T09:16:23.952Z,16.70
2018-10-03T09:18:52.461Z,15.67
2018-10-03T09:21:20.995Z,17.80
2018-10-03T09:23:49.511Z,9.67
2018-10-03T09:26:18.107Z,13.87
2018-10-03T09:28:46.758Z,14.57
2018-10-03T09:31:16.151Z,16.93
2018-10-03T09:33:44.800Z,17.13
2018-10-03T09:36:14.329Z,16.50
2018-10-03T09:38:42.841Z,14.03
2018-10-03T09:41:11.364Z,13.47
2018-10-03T09:43:39.996Z,15.10
2018-10-03T09:46:08.920Z,15.80
2018-10-03T09:48:37.472Z,13.93
2018-10-03T09:51:06.001Z,18.97
2018-10-03T09:53:34.795Z,14.77
2018-10-03T09:56:05.108Z,11.20
2018-10-03T09:58:33.579Z,18.60
2018-10-03T10:01:09.286Z,13.77
2018-10-03T10:03:37.783Z,9.90
2018-10-03T10:06:06.394Z,13.23
2018-10-03T10:08:35.062Z,12.13
2018-10-03T10:11:05.225Z,8.83
2018-10-03T10:13:33.932Z,14.63
2018-10-03T10:16:03.745Z,15.53
2018-10-03T10:18:32.261Z,12.43
2018-10-03T10:21:00.785Z,13.47
2018-10-03T10:23:29.316Z,15.43
2018-10-03T10:25:57.816Z,12.87
2018-10-03T10:28:26.404Z,12.23
2018-10-03T10:30:54.912Z,10.17
2018-10-03T10:33:23.427Z,14.23
2018-10-03T10:35:52.038Z,14.40
2018-10-03T10:38:20.574Z,14.20
2018-10-03T10:40:49.146Z,12.40
2018-10-03T10:43:18.008Z,13.07
2018-10-03T10:45:46.861Z,9.07
2018-10-03T10:48:15.496Z,12.70
2018-10-03T10:50:44.056Z,14.47
2018-10-03T10:53:12.624Z,10.87
2018-10-03T10:55:41.194Z,11.03
2018-10-03T10:58:09.728Z,13.90
2018-10-03T11:00:38.691Z,10.53
2018-10-03T11:03:07.273Z,9.70
2018-10-03T11:05:35.857Z,12.03
2018-10-03T11:08:05.665Z,13.70
2018-10-03T11:10:34.144Z,10.97
2018-10-03T11:13:04.157Z,11.43
2018-10-03T11:15:32.785Z,14.30
2018-10-03T11:18:03.165Z,9.87
2018-10-03T11:20:31.729Z,10.43
2018-10-03T11:23:00.217Z,9.20
2018-10-03T11:25:28.793Z,11.07
2018-10-03T11:27:57.308Z,12.90
2018-10-03T11:30:25.915Z,10.93
2018-10-03T11:32:56.326Z,9.50
2018-10-03T11:35:25.560Z,11.33
2018-10-03T11:37:54.135Z,11.73
2018-10-03T11:40:22.865Z,16.83
2018-10-03T11:42:51.465Z,12.80
2018-10-03T11:45:20.031Z,11.83
2018-10-03T11:47:48.671Z,9.77
2018-10-03T11:50:17.265Z,13.00
2018-10-03T11:52:47.105Z,11.10
2018-10-03T11:55:15.625Z,14.80
2018-10-03T11:57:44.154Z,8.47
2018-10-03T12:00:12.697Z,9.33
2018-10-03T12:02:41.496Z,10.63
2018-10-03T12:05:10.037Z,9.80
2018-10-03T12:07:38.706Z,12.73
2018-10-03T12:10:07.925Z,10.00
2018-10-03T12:12:36.470Z,8.13
2018-10-03T12:15:06.926Z,11.43
2018-10-03T12:17:35.440Z,12.20
2018-10-03T12:20:05.303Z,7.90
2018-10-03T12:22:34.203Z,10.07
2018-10-03T12:25:03.774Z,10.67
2018-10-03T12:27:32.424Z,10.43
2018-10-03T12:30:02.697Z,8.07
2018-10-03T12:32:31.246Z,10.53
2018-10-03T12:34:59.753Z,10.20
2018-10-03T12:37:28.307Z,9.87
2018-10-03T12:39:57.167Z,8.43
2018-10-03T12:42:26.230Z,11.63
2018-10-03T12:44:54.814Z,11.33
2018-10-03T12:47:23.333Z,8.93
2018-10-03T12:49:51.852Z,9.97
2018-10-03T12:52:20.423Z,8.87
2018-10-03T12:54:48.967Z,6.67
2018-10-03T12:57:17.863Z,12.20
2018-10-03T12:59:46.459Z,6.03
2018-10-03T13:02:15.024Z,8.90
2018-10-03T13:04:43.920Z,7.10
2018-10-03T13:07:12.426Z,8.27
2018-10-03T13:09:42.720Z,6.67
2018-10-03T13:12:11.807Z,11.27
2018-10-03T13:14:40.288Z,6.17
2018-10-03T13:17:08.789Z,8.33
2018-10-03T13:19:37.636Z,8.10
2018-10-03T13:22:06.190Z,7.87
2018-10-03T13:24:34.782Z,7.30
2018-10-03T13:27:04.842Z,7.80
2018-10-03T13:29:33.474Z,8.67
2018-10-03T13:32:02.728Z,5.93
2018-10-03T13:34:31.341Z,7.73
2018-10-03T13:36:59.856Z,8.87
2018-10-03T13:39:28.344Z,8.03
2018-10-03T13:41:57.100Z,9.50
2018-10-03T13:44:25.625Z,9.20
2018-10-03T13:46:54.142Z,7.90
2018-10-03T13:49:22.701Z,6.17
2018-10-03T13:51:51.215Z,7.83
2018-10-03T13:54:19.733Z,8.17
2018-10-03T13:56:48.257Z,7.77
2018-10-03T13:59:16.823Z,9.83
2018-10-03T14:01:45.614Z,10.33
2018-10-03T14:04:14.150Z,7.17
2018-10-03T14:06:42.690Z,8.27
2018-10-03T14:09:11.929Z,7.37
2018-10-03T14:11:40.890Z,9.40
2018-10-03T14:14:09.709Z,11.03
2018-10-03T14:16:38.204Z,11.13
2018-10-03T14:19:06.726Z,7.43
2018-10-03T14:21:35.438Z,9.67
2018-10-03T14:24:05.427Z,9.93
2018-10-03T14:26:33.920Z,12.57
2018-10-03T14:29:03.763Z,8.13
2018-10-03T14:31:32.283Z,12.67
2018-10-03T14:34:00.753Z,12.00
2018-10-03T14:36:29.310Z,7.80
2018-10-03T14:38:57.872Z,12.27
2018-10-03T14:41:28.246Z,7.37
2018-10-03T14:43:56.770Z,13.30
2018-10-03T14:46:25.711Z,12.67
2018-10-03T14:48:54.273Z,8.10
2018-10-03T14:51:22.781Z,12.00
2018-10-03T14:53:51.360Z,7.97
2018-10-03T14:56:19.872Z,8.80
2018-10-03T14:58:48.457Z,8.90
2018-10-03T15:01:17.353Z,9.37
2018-10-03T15:03:45.824Z,8.23
2018-10-03T15:06:14.469Z,8.60
2018-10-03T15:08:43.387Z,10.33
2018-10-03T15:11:11.881Z,11.67
2018-10-03T15:13:40.409Z,9.60
2018-10-03T15:16:09.216Z,10.47
2018-10-03T15:18:37.999Z,11.23
2018-10-03T15:21:06.534Z,12.53
2018-10-03T15:23:35.016Z,10.93
2018-10-03T15:26:05.260Z,12.40
2018-10-03T15:28:33.821Z,11.43
2018-10-03T15:31:04.429Z,9.73
2018-10-03T15:33:33.014Z,11.57
2018-10-03T15:36:03.176Z,11.43
2018-10-03T15:38:31.721Z,11.70
2018-10-03T15:41:07.619Z,10.43
2018-10-03T15:43:36.390Z,9.57
2018-10-03T15:46:06.623Z,12.67
2018-10-03T15:48:36.006Z,11.93
2018-10-03T15:51:05.105Z,13.77
2018-10-03T15:53:33.667Z,12.73
2018-10-03T15:56:04.713Z,12.80
2018-10-03T15:58:33.357Z,9.27
2018-10-03T16:01:03.177Z,12.80
2018-10-03T16:03:31.681Z,10.30
2018-10-03T16:06:00.264Z,8.43
2018-10-03T16:08:28.940Z,11.50
2018-10-03T16:10:57.602Z,12.03
2018-10-03T16:13:26.168Z,11.03
2018-10-03T16:15:55.146Z,14.20
2018-10-03T16:18:23.828Z,14.30
2018-10-03T16:20:52.376Z,12.17
2018-10-03T16:23:20.874Z,12.33
2018-10-03T16:25:49.449Z,13.20
2018-10-03T16:28:18.042Z,11.57
2018-10-03T16:30:46.633Z,10.53
2018-10-03T16:33:15.147Z,10.00
2018-10-03T16:35:43.749Z,14.10
2018-10-03T16:38:12.348Z,13.53
2018-10-03T16:40:40.872Z,9.80
2018-10-03T16:43:09.443Z,10.83
2018-10-03T16:45:39.791Z,14.53
2018-10-03T16:48:08.311Z,10.33
2018-10-03T16:50:36.860Z,11.73
2018-10-03T16:53:06.119Z,11.63
2018-10-03T16:55:34.687Z,12.77
2018-10-03T16:58:05.591Z,13.03
2018-10-03T17:00:36.461Z,10.53
2018-10-03T17:03:06.353Z,10.77
2018-10-03T17:05:36.198Z,15.73
2018-10-03T17:08:05.372Z,15.37
2018-10-03T17:10:34.344Z,13.07
2018-10-03T17:13:04.512Z,12.60
2018-10-03T17:15:33.007Z,8.37
2018-10-03T17:18:03.090Z,13.97
2018-10-03T17:20:31.686Z,11.23
2018-10-03T17:23:00.177Z,11.13
2018-10-03T17:25:28.744Z,15.93
2018-10-03T17:27:57.903Z,16.17
2018-10-03T17:30:26.449Z,13.97
2018-10-03T17:32:55.245Z,15.37
2018-10-03T17:35:24.015Z,14.70
2018-10-03T17:37:52.590Z,14.90
2018-10-03T17:40:21.230Z,15.03
2018-10-03T17:42:49.842Z,16.40
2018-10-03T17:45:18.537Z,12.17
2018-10-03T17:47:47.135Z,17.23
2018-10-03T17:50:15.808Z,15.60
2018-10-03T17:52:44.457Z,10.67
2018-10-03T17:55:13.002Z,13.47
2018-10-03T17:57:41.555Z,11.20
2018-10-03T18:00:10.520Z,11.87
2018-10-03T18:02:39.419Z,11.97
2018-10-03T18:05:08.088Z,13.87
2018-10-03T18:07:37.808Z,14.17
2018-10-03T18:10:07.100Z,13.07
2018-10-03T18:12:37.144Z,15.30
2018-10-03T18:15:06.616Z,11.57
2018-10-03T18:17:35.184Z,13.57
2018-10-03T18:20:06.471Z,10.67
2018-10-03T18:22:35.114Z,11.73
2018-10-03T18:25:07.912Z,12.20
2018-10-03T18:27:36.619Z,12.80
2018-10-03T18:30:07.599Z,9.40
2018-10-03T18:32:36.265Z,11.83
2018-10-03T18:35:07.943Z,11.83
2018-10-03T18:37:36.595Z,14.63
2018-10-03T18:40:05.342Z,15.33
2018-10-03T18:42:34.920Z,13.67
2018-10-03T18:45:06.779Z,11.00
2018-10-03T18:47:35.325Z,13.67
2018-10-03T18:50:07.140Z,15.87
2018-10-03T18:52:35.758Z,12.47
2018-10-03T18:55:06.318Z,14.60
2018-10-03T18:57:34.992Z,12.30
2018-10-03T19:00:07.356Z,20.57
2018-10-03T19:02:36.002Z,9.90
2018-10-03T19:05:05.858Z,16.33
2018-10-03T19:07:34.575Z,16.80
2018-10-03T19:10:05.357Z,13.63
2018-10-03T19:12:34.474Z,12.60
2018-10-03T19:15:07.236Z,17.97
2018-10-03T19:17:35.897Z,15.70
2018-10-03T19:20:08.093Z,15.20
2018-10-03T19:22:36.683Z,12.40
2018-10-03T19:25:06.807Z,22.30
2018-10-03T19:27:35.451Z,16.83
2018-10-03T19:30:05.458Z,17.83
2018-10-03T19:32:34.098Z,14.00
2018-10-03T19:35:06.147Z,16.60
2018-10-03T19:37:35.591Z,17.33
2018-10-03T19:40:06.511Z,16.10
2018-10-03T19:42:35.424Z,17.53
2018-10-03T19:45:05.960Z,20.40
2018-10-03T19:47:34.674Z,17.57
2018-10-03T19:50:05.496Z,22.73
2018-10-03T19:52:34.380Z,19.90
2018-10-03T19:55:05.104Z,17.70
2018-10-03T19:57:34.355Z,16.90
2018-10-03T20:00:05.509Z,14.40
2018-10-03T20:02:34.131Z,15.80
2018-10-03T20:05:05.510Z,19.90
2018-10-03T20:07:34.800Z,18.63
2018-10-03T20:10:05.523Z,17.23
2018-10-03T20:12:34.533Z,14.03
2018-10-03T20:15:05.217Z,16.93
2018-10-03T20:17:33.796Z,16.57
2018-10-03T20:20:04.816Z,26.03
2018-10-03T20:22:33.416Z,18.07
2018-10-03T20:25:03.651Z,15.50
2018-10-03T20:27:32.324Z,19.10
2018-10-03T20:30:03.010Z,19.40
2018-10-03T20:32:32.050Z,17.37
2018-10-03T20:35:00.678Z,14.43
2018-10-03T20:37:29.224Z,19.63
2018-10-03T20:39:57.855Z,22.47
2018-10-03T20:42:26.547Z,18.73
2018-10-03T20:44:55.090Z,14.93
2018-10-03T20:47:23.682Z,13.80
2018-10-03T20:49:52.516Z,12.23
2018-10-03T20:52:21.114Z,21.60
2018-10-03T20:54:50.038Z,17.83
2018-10-03T20:57:18.588Z,16.90
2018-10-03T20:59:47.153Z,17.60
2018-10-03T21:02:15.813Z,18.10
2018-10-03T21:04:44.522Z,14.60
2018-10-03T21:07:13.071Z,15.33
2018-10-03T21:09:41.957Z,14.60
2018-10-03T21:12:17.369Z,16.40
2018-10-03T21:14:45.879Z,15.33
2018-10-03T21:17:14.373Z,15.63
2018-10-03T21:19:42.900Z,14.50
2018-10-03T21:22:11.422Z,16.63
2018-10-03T21:24:40.006Z,17.83
2018-10-03T21:27:09.398Z,16.80
2018-10-03T21:29:37.925Z,17.83
2018-10-03T21:32:06.613Z,9.13
2018-10-03T21:34:35.122Z,11.43
2018-10-03T21:37:06.369Z,16.57
2018-10-03T21:39:38.800Z,20.13
2018-10-03T21:42:07.377Z,19.10
2018-10-03T21:44:35.904Z,16.03
2018-10-03T21:47:07.295Z,15.00
2018-10-03T21:49:35.896Z,13.83
2018-10-03T21:52:05.671Z,14.87
2018-10-03T21:54:34.372Z,12.87
2018-10-03T21:57:04.461Z,12.83
2018-10-03T21:59:32.986Z,14.70
2018-10-03T22:02:03.278Z,14.30
2018-10-03T22:04:31.781Z,18.33
2018-10-03T22:07:00.329Z,14.20
2018-10-03T22:09:28.879Z,14.77
2018-10-03T22:11:57.697Z,16.17
2018-10-03T22:14:26.319Z,15.07
2018-10-03T22:16:54.925Z,17.47
2018-10-03T22:19:23.928Z,12.97
2018-10-03T22:21:52.450Z,20.33
2018-10-03T22:24:20.993Z,16.33
2018-10-03T22:26:49.613Z,17.70
2018-10-03T22:29:18.293Z,15.10
2018-10-03T22:31:46.793Z,18.00
2018-10-03T22:34:15.498Z,16.93
2018-10-03T22:36:44.051Z,16.93
2018-10-03T22:39:12.523Z,14.27
2018-10-03T22:41:41.305Z,24.20
2018-10-03T22:44:09.850Z,20.27
2018-10-03T22:46:38.728Z,16.10
2018-10-03T22:49:07.681Z,15.30
2018-10-03T22:51:36.309Z,17.07
2018-10-03T22:54:06.182Z,17.97
2018-10-03T22:56:35.060Z,16.00
2018-10-03T22:59:05.678Z,17.37
2018-10-03T23:01:34.178Z,19.87
2018-10-03T23:04:03.711Z,16.27
2018-10-03T23:06:32.257Z,15.37
2018-10-03T23:09:00.774Z,20.60
2018-10-03T23:11:29.399Z,19.03
2018-10-03T23:13:57.933Z,17.67
2018-10-03T23:16:26.478Z,17.23
2018-10-03T23:18:55.035Z,14.00
2018-10-03T23:21:23.547Z,18.13
2018-10-03T23:23:52.052Z,23.27
2018-10-03T23:26:21.026Z,20.03
2018-10-03T23:28:49.527Z,11.43
2018-10-03T23:31:18.139Z,17.17
2018-10-03T23:33:46.658Z,15.70
2018-10-03T23:36:15.168Z,16.23
2018-10-03T23:38:43.698Z,11.27
2018-10-03T23:41:12.232Z,17.70
2018-10-03T23:43:40.759Z,13.47
2018-10-03T23:46:09.661Z,15.70
2018-10-03T23:48:38.143Z,13.90
2018-10-03T23:51:06.874Z,16.63
2018-10-03T23:53:35.388Z,14.10
2018-10-03T23:56:05.317Z,17.80
2018-10-03T23:58:34.149Z,14.97
